createdAt,value
2022-09-16T00:04:51.517Z,12.99
2022-09-16T00:10:13.305Z,13.04
2022-09-16T00:15:33.987Z,13.09
2022-09-16T00:20:55.019Z,13.23
2022-09-16T00:26:16.065Z,13.33
2022-09-16T00:31:37.292Z,13.24
2022-09-16T00:36:58.310Z,13.22
2022-09-16T00:42:19.493Z,13.24
2022-09-16T00:47:46.116Z,13.31
2022-09-16T00:53:12.175Z,13.20
2022-09-16T00:58:56.127Z,13.17
2022-09-16T01:04:22.656Z,13.27
2022-09-16T01:09:43.412Z,13.21
2022-09-16T01:15:06.293Z,13.16
2022-09-16T01:20:57.586Z,13.25
2022-09-16T01:26:40.196Z,13.29
2022-09-16T01:32:27.332Z,13.29
2022-09-16T01:38:04.060Z,13.33
2022-09-16T01:43:57.095Z,13.21
2022-09-16T01:49:58.007Z,13.25
2022-09-16T01:55:28.617Z,13.28
2022-09-16T02:00:54.283Z,13.34
2022-09-16T02:06:22.984Z,13.35
2022-09-16T02:11:46.802Z,13.32
2022-09-16T02:17:18.627Z,13.34
2022-09-16T02:22:43.863Z,13.31
2022-09-16T02:28:13.144Z,13.24
2022-09-16T02:33:40.725Z,13.24
2022-09-16T02:39:09.692Z,13.31
2022-09-16T02:44:30.387Z,13.27
2022-09-16T02:49:55.719Z,13.26
2022-09-16T02:55:41.603Z,13.13
2022-09-16T03:01:02.860Z,12.91
2022-09-16T03:06:29.037Z,13.00
2022-09-16T03:12:02.161Z,13.16
2022-09-16T03:17:41.793Z,13.36
2022-09-16T03:23:26.753Z,13.50
2022-09-16T03:29:08.975Z,13.40
2022-09-16T03:34:42.612Z,13.41
2022-09-16T03:40:15.773Z,13.45
2022-09-16T03:45:36.311Z,13.32
2022-09-16T03:50:56.880Z,13.18
2022-09-16T03:56:17.889Z,13.08
2022-09-16T04:01:38.838Z,13.14
2022-09-16T04:06:59.525Z,13.09
2022-09-16T04:12:20.153Z,13.15
2022-09-16T04:17:40.809Z,13.10
2022-09-16T04:23:01.473Z,13.15
2022-09-16T04:28:22.269Z,13.18
2022-09-16T04:33:43.192Z,13.06
2022-09-16T04:39:03.897Z,13.11
2022-09-16T04:44:24.736Z,13.11
2022-09-16T04:49:45.448Z,13.06
2022-09-16T04:55:06.305Z,13.05
2022-09-16T05:00:27.531Z,13.09
2022-09-16T05:05:48.481Z,13.20
2022-09-16T05:11:12.300Z,13.32
2022-09-16T05:16:34.009Z,13.31
2022-09-16T05:21:55.189Z,13.35
2022-09-16T05:27:15.847Z,13.35
2022-09-16T05:32:36.631Z,13.38
2022-09-16T05:37:57.470Z,13.41
2022-09-16T05:43:18.138Z,13.43
2022-09-16T05:48:38.811Z,13.40
2022-09-16T05:53:59.801Z,13.55
2022-09-16T05:59:21.002Z,13.52
2022-09-16T06:04:42.580Z,13.62
2022-09-16T06:10:04.010Z,13.67
2022-09-16T06:15:24.802Z,13.52
2022-09-16T06:20:46.344Z,13.43
2022-09-16T06:26:14.191Z,13.43
2022-09-16T06:31:36.359Z,13.42
2022-09-16T06:36:57.344Z,13.36
2022-09-16T06:42:18.165Z,13.31
2022-09-16T06:47:39.063Z,13.47
2022-09-16T06:52:59.723Z,13.46
2022-09-16T06:58:20.630Z,13.51
2022-09-16T07:03:43.849Z,13.48
2022-09-16T07:09:04.816Z,13.46
2022-09-16T07:14:27.290Z,13.41
2022-09-16T07:19:49.186Z,13.41
2022-09-16T07:25:10.762Z,13.51
2022-09-16T07:30:34.283Z,13.66
2022-09-16T07:35:59.258Z,13.70
2022-09-16T07:41:41.293Z,13.89
2022-09-16T07:47:02.447Z,13.79
2022-09-16T07:52:29.191Z,13.87
2022-09-16T07:57:50.233Z,13.78
2022-09-16T08:03:11.038Z,13.87
2022-09-16T08:08:32.218Z,14.00
2022-09-16T08:13:53.442Z,13.89
2022-09-16T08:19:14.136Z,13.90
2022-09-16T08:24:35.172Z,14.14
2022-09-16T08:29:56.220Z,14.27
2022-09-16T08:35:16.812Z,14.37
2022-09-16T08:40:37.745Z,14.24
2022-09-16T08:46:10.314Z,14.27
2022-09-16T08:51:32.553Z,14.32
2022-09-16T08:57:01.570Z,14.33
2022-09-16T09:02:38.878Z,14.51
2022-09-16T09:08:24.567Z,14.74
2022-09-16T09:13:51.500Z,14.73
2022-09-16T09:19:56.907Z,14.78
2022-09-16T09:25:27.918Z,15.22
2022-09-16T09:31:29.317Z,15.36
2022-09-16T09:37:09.374Z,15.42
2022-09-16T09:42:38.151Z,15.17
2022-09-16T09:48:13.834Z,15.26
2022-09-16T09:53:47.393Z,15.35
2022-09-16T09:59:45.008Z,15.24
2022-09-16T10:05:09.988Z,15.08
2022-09-16T10:10:34.416Z,14.99
2022-09-16T10:16:08.037Z,15.06
2022-09-16T10:21:43.726Z,15.11
2022-09-16T10:27:24.118Z,15.32
2022-09-16T10:32:51.935Z,15.75
2022-09-16T10:38:13.156Z,15.97
2022-09-16T10:43:34.107Z,16.17
2022-09-16T10:49:00.547Z,16.33
2022-09-16T10:54:28.333Z,16.26
2022-09-16T11:00:00.759Z,15.97
2022-09-16T11:05:38.558Z,16.00
2022-09-16T11:11:02.198Z,16.00
2022-09-16T11:16:50.250Z,15.97
2022-09-16T11:22:25.000Z,15.96
2022-09-16T11:27:48.677Z,15.84
2022-09-16T11:33:25.455Z,15.80
2022-09-16T11:39:11.958Z,15.67
2022-09-16T11:44:46.574Z,15.69
2022-09-16T11:50:12.207Z,15.72
2022-09-16T11:55:59.677Z,15.74
2022-09-16T12:01:48.807Z,15.78
2022-09-16T12:07:19.535Z,15.87
2022-09-16T12:12:44.702Z,15.77
2022-09-16T12:18:18.348Z,15.72
2022-09-16T12:23:43.360Z,15.70
2022-09-16T12:29:11.905Z,15.75
2022-09-16T12:34:53.321Z,15.90
2022-09-16T12:40:23.664Z,16.03
2022-09-16T12:46:02.611Z,16.01
2022-09-16T12:51:30.492Z,16.22
2022-09-16T12:57:09.944Z,16.29
2022-09-16T13:02:38.472Z,16.24
2022-09-16T13:08:04.494Z,16.16
2022-09-16T13:13:45.958Z,16.14
2022-09-16T13:19:24.953Z,15.98
2022-09-16T13:24:51.477Z,16.03
2022-09-16T13:30:15.806Z,15.94
2022-09-16T13:35:39.475Z,15.83
2022-09-16T13:41:01.809Z,15.80
2022-09-16T13:46:35.584Z,15.72
2022-09-16T13:51:57.525Z,15.80
2022-09-16T13:57:27.426Z,15.74
2022-09-16T14:03:06.846Z,15.63
2022-09-16T14:08:46.238Z,15.64
2022-09-16T14:14:29.984Z,15.62
2022-09-16T14:20:00.578Z,15.74
2022-09-16T14:25:31.164Z,15.66
2022-09-16T14:31:01.186Z,15.59
2022-09-16T14:36:28.069Z,15.54
2022-09-16T14:41:59.040Z,15.51
2022-09-16T14:47:47.457Z,15.49
2022-09-16T14:53:26.924Z,15.57
2022-09-16T14:58:54.957Z,15.52
2022-09-16T15:04:31.322Z,15.52
2022-09-16T15:10:02.105Z,15.58
2022-09-16T15:15:26.318Z,15.65
2022-09-16T15:20:56.741Z,15.61
2022-09-16T15:26:20.475Z,15.64
2022-09-16T15:31:44.519Z,15.62
2022-09-16T15:37:05.078Z,15.52
2022-09-16T15:42:25.593Z,15.36
2022-09-16T15:48:00.726Z,15.18
2022-09-16T15:53:43.479Z,15.19
2022-09-16T15:59:23.617Z,15.19
2022-09-16T16:04:44.261Z,15.16
2022-09-16T16:10:32.659Z,14.97
2022-09-16T16:15:53.197Z,14.73
2022-09-16T16:21:16.697Z,14.69
2022-09-16T16:26:37.556Z,14.79
2022-09-16T16:32:08.725Z,14.56
2022-09-16T16:37:45.473Z,14.39
2022-09-16T16:43:06.846Z,14.33
2022-09-16T16:48:28.877Z,14.30
2022-09-16T16:53:49.636Z,14.29
2022-09-16T16:59:10.066Z,14.32
2022-09-16T17:04:30.955Z,14.25
2022-09-16T17:09:52.224Z,14.08
2022-09-16T17:15:12.882Z,13.97
2022-09-16T17:20:33.438Z,13.95
2022-09-16T17:25:54.010Z,13.79
2022-09-16T17:31:22.372Z,13.76
2022-09-16T17:36:46.142Z,13.79
2022-09-16T17:42:07.060Z,13.76
2022-09-16T17:47:27.926Z,13.79
2022-09-16T17:52:48.578Z,13.72
2022-09-16T17:58:09.286Z,13.65
2022-09-16T18:03:29.795Z,13.70
2022-09-16T18:08:52.073Z,13.71
2022-09-16T18:14:13.835Z,13.67
2022-09-16T18:19:34.738Z,13.66
2022-09-16T18:24:55.415Z,13.60
2022-09-16T18:30:16.748Z,13.48
2022-09-16T18:35:38.374Z,13.44
2022-09-16T18:41:10.896Z,13.49
2022-09-16T18:46:33.584Z,13.44
2022-09-16T18:51:54.637Z,13.54
2022-09-16T18:57:17.439Z,13.43
2022-09-16T19:02:38.591Z,13.38
2022-09-16T19:07:59.828Z,13.38
2022-09-16T19:13:20.600Z,13.31
2022-09-16T19:18:42.155Z,13.21
2022-09-16T19:24:05.924Z,13.19
2022-09-16T19:29:26.906Z,13.07
2022-09-16T19:34:47.635Z,13.04
2022-09-16T19:40:09.018Z,12.83
2022-09-16T19:45:29.981Z,12.80
2022-09-16T19:50:52.405Z,12.74
2022-09-16T19:56:15.475Z,12.85
2022-09-16T20:01:37.450Z,12.85
2022-09-16T20:06:58.455Z,12.80
2022-09-16T20:12:19.228Z,12.78
2022-09-16T20:17:39.886Z,12.79
2022-09-16T20:23:00.544Z,12.74
2022-09-16T20:28:21.621Z,12.81
2022-09-16T20:33:42.508Z,12.76
2022-09-16T20:39:04.388Z,12.77
2022-09-16T20:44:25.889Z,12.98
2022-09-16T20:49:46.718Z,12.78
2022-09-16T20:55:08.007Z,12.68
2022-09-16T21:00:28.922Z,12.53
2022-09-16T21:05:50.235Z,12.52
2022-09-16T21:11:16.891Z,12.45
2022-09-16T21:16:39.092Z,12.41
2022-09-16T21:22:00.134Z,12.37
2022-09-16T21:27:20.957Z,12.25
2022-09-16T21:32:43.201Z,12.18
2022-09-16T21:38:03.922Z,12.14
2022-09-16T21:43:34.058Z,12.11
2022-09-16T21:49:02.282Z,12.07
2022-09-16T21:54:24.066Z,12.06
2022-09-16T21:59:44.883Z,12.05
2022-09-16T22:05:06.113Z,11.92
2022-09-16T22:10:28.811Z,11.84
2022-09-16T22:15:52.742Z,11.94
2022-09-16T22:21:14.538Z,11.85
2022-09-16T22:26:36.147Z,11.81
2022-09-16T22:31:57.240Z,11.70
2022-09-16T22:37:17.852Z,11.70
2022-09-16T22:42:38.414Z,11.64
2022-09-16T22:47:59.100Z,11.70
2022-09-16T22:53:19.675Z,11.77
2022-09-16T22:58:41.243Z,11.53
2022-09-16T23:04:03.524Z,11.58
2022-09-16T23:09:24.206Z,11.57
2022-09-16T23:14:44.809Z,11.52
2022-09-16T23:20:05.787Z,11.56
2022-09-16T23:25:26.785Z,11.49
2022-09-16T23:30:47.489Z,11.33
2022-09-16T23:36:09.944Z,11.32
2022-09-16T23:41:31.969Z,11.23
2022-09-16T23:46:52.778Z,11.35
2022-09-16T23:52:13.650Z,11.28
2022-09-16T23:57:34.447Z,11.35
